sensor_id;sensor_type;location;lat;lon;timestamp;P1;durP1;ratioP1;P2;durP2;ratioP2
71821;SDS011;64096;52.548;13.406;2023-03-11T06:06:05;4.20;;;2.63;;
71821;SDS011;64096;52.548;13.406;2023-03-11T06:08:32;4.63;;;2.15;;
71821;SDS011;64096;52.548;13.406;2023-03-11T06:11:07;3.97;;;2.45;;
71821;SDS011;64096;52.548;13.406;2023-03-11T06:13:33;4.05;;;2.50;;
71821;SDS011;64096;52.548;13.406;2023-03-11T06:15:59;4.05;;;2.47;;
71821;SDS011;64096;52.548;13.406;2023-03-11T06:18:26;4.35;;;2.50;;
71821;SDS011;64096;52.548;13.406;2023-03-11T06:20:52;5.38;;;2.90;;
71821;SDS011;64096;52.548;13.406;2023-03-11T06:23:18;4.60;;;3.10;;
71821;SDS011;64096;52.548;13.406;2023-03-11T06:25:53;5.90;;;2.90;;
71821;SDS011;64096;52.548;13.406;2023-03-11T06:28:19;4.95;;;2.75;;
71821;SDS011;64096;52.548;13.406;2023-03-11T06:30:45;6.03;;;3.33;;
71821;SDS011;64096;52.548;13.406;2023-03-11T06:33:11;4.65;;;2.83;;
71821;SDS011;64096;52.548;13.406;2023-03-11T06:35:39;4.55;;;3.08;;
71821;SDS011;64096;52.548;13.406;2023-03-11T06:38:05;5.68;;;3.53;;
71821;SDS011;64096;52.548;13.406;2023-03-11T06:40:31;4.80;;;3.05;;
71821;SDS011;64096;52.548;13.406;2023-03-11T06:42:57;5.03;;;3.13;;
71821;SDS011;64096;52.548;13.406;2023-03-11T06:45:23;5.10;;;3.70;;
71821;SDS011;64096;52.548;13.406;2023-03-11T06:47:49;5.88;;;3.20;;
71821;SDS011;64096;52.548;13.406;2023-03-11T06:50:16;6.65;;;3.65;;
71821;SDS011;64096;52.548;13.406;2023-03-11T06:52:42;5.43;;;3.30;;
71821;SDS011;64096;52.548;13.406;2023-03-11T06:55:08;5.07;;;3.50;;
71821;SDS011;64096;52.548;13.406;2023-03-11T06:57:34;5.53;;;3.35;;
71821;SDS011;64096;52.548;13.406;2023-03-11T07:00:00;4.80;;;3.40;;
71821;SDS011;64096;52.548;13.406;2023-03-11T07:02:27;5.25;;;3.20;;
71821;SDS011;64096;52.548;13.406;2023-03-11T07:04:53;5.53;;;3.20;;
71821;SDS011;64096;52.548;13.406;2023-03-11T07:07:19;5.13;;;3.65;;
71821;SDS011;64096;52.548;13.406;2023-03-11T07:09:45;5.45;;;3.33;;
71821;SDS011;64096;52.548;13.406;2023-03-11T07:12:11;6.20;;;3.58;;
71821;SDS011;64096;52.548;13.406;2023-03-11T07:14:38;6.00;;;3.17;;
71821;SDS011;64096;52.548;13.406;2023-03-11T07:17:04;6.57;;;3.30;;
71821;SDS011;64096;52.548;13.406;2023-03-11T07:19:31;6.00;;;3.67;;
71821;SDS011;64096;52.548;13.406;2023-03-11T07:21:57;7.15;;;4.30;;
71821;SDS011;64096;52.548;13.406;2023-03-11T07:24:23;6.55;;;4.20;;
71821;SDS011;64096;52.548;13.406;2023-03-11T07:26:49;6.45;;;3.78;;
71821;SDS011;64096;52.548;13.406;2023-03-11T07:29:15;7.00;;;4.30;;
71821;SDS011;64096;52.548;13.406;2023-03-11T07:31:41;6.03;;;3.40;;
71821;SDS011;64096;52.548;13.406;2023-03-11T07:34:10;4.88;;;3.17;;
71821;SDS011;64096;52.548;13.406;2023-03-11T07:36:38;5.70;;;3.10;;
71821;SDS011;64096;52.548;13.406;2023-03-11T07:39:05;6.32;;;3.78;;
71821;SDS011;64096;52.548;13.406;2023-03-11T07:41:32;6.35;;;3.33;;
71821;SDS011;64096;52.548;13.406;2023-03-11T07:43:58;6.70;;;3.63;;
71821;SDS011;64096;52.548;13.406;2023-03-11T07:46:25;6.30;;;3.40;;
71821;SDS011;64096;52.548;13.406;2023-03-11T07:48:51;7.07;;;3.80;;
71821;SDS011;64096;52.548;13.406;2023-03-11T07:51:22;6.78;;;3.40;;
71821;SDS011;64096;52.548;13.406;2023-03-11T07:53:48;6.75;;;3.80;;
71821;SDS011;64096;52.548;13.406;2023-03-11T07:56:15;6.18;;;4.00;;
71821;SDS011;64096;52.548;13.406;2023-03-11T07:58:41;7.90;;;4.13;;
71821;SDS011;64096;52.548;13.406;2023-03-11T08:01:09;6.45;;;4.20;;
71821;SDS011;64096;52.548;13.406;2023-03-11T08:03:35;5.63;;;3.67;;
71821;SDS011;64096;52.548;13.406;2023-03-11T08:06:01;6.82;;;4.03;;
71821;SDS011;64096;52.548;13.406;2023-03-11T08:08:28;7.60;;;4.20;;
71821;SDS011;64096;52.548;13.406;2023-03-11T08:10:54;6.47;;;4.13;;
71821;SDS011;64096;52.548;13.406;2023-03-11T08:13:20;7.07;;;4.22;;
71821;SDS011;64096;52.548;13.406;2023-03-11T08:15:46;7.15;;;3.95;;
71821;SDS011;64096;52.548;13.406;2023-03-11T08:18:12;6.53;;;4.03;;
71821;SDS011;64096;52.548;13.406;2023-03-11T08:20:38;7.45;;;4.30;;
71821;SDS011;64096;52.548;13.406;2023-03-11T08:23:05;7.90;;;4.22;;
71821;SDS011;64096;52.548;13.406;2023-03-11T08:25:31;7.25;;;4.28;;
71821;SDS011;64096;52.548;13.406;2023-03-11T08:27:57;5.50;;;3.50;;
71821;SDS011;64096;52.548;13.406;2023-03-11T08:30:23;7.93;;;4.90;;
71821;SDS011;64096;52.548;13.406;2023-03-11T08:32:49;7.32;;;4.40;;
71821;SDS011;64096;52.548;13.406;2023-03-11T08:35:16;7.63;;;4.90;;
71821;SDS011;64096;52.548;13.406;2023-03-11T08:37:42;7.65;;;4.20;;
71821;SDS011;64096;52.548;13.406;2023-03-11T08:40:08;7.15;;;4.40;;
71821;SDS011;64096;52.548;13.406;2023-03-11T08:42:35;7.30;;;4.10;;
71821;SDS011;64096;52.548;13.406;2023-03-11T08:45:01;5.88;;;3.80;;
71821;SDS011;64096;52.548;13.406;2023-03-11T08:47:27;6.97;;;4.28;;
71821;SDS011;64096;52.548;13.406;2023-03-11T08:49:53;5.78;;;3.80;;
71821;SDS011;64096;52.548;13.406;2023-03-11T08:52:19;5.97;;;3.65;;
71821;SDS011;64096;52.548;13.406;2023-03-11T08:54:45;6.60;;;3.55;;
71821;SDS011;64096;52.548;13.406;2023-03-11T08:57:11;5.97;;;3.88;;
71821;SDS011;64096;52.548;13.406;2023-03-11T08:59:37;7.25;;;3.90;;
71821;SDS011;64096;52.548;13.406;2023-03-11T09:02:04;6.80;;;4.13;;
71821;SDS011;64096;52.548;13.406;2023-03-11T09:04:30;6.05;;;4.03;;
71821;SDS011;64096;52.548;13.406;2023-03-11T09:06:56;5.95;;;3.58;;
71821;SDS011;64096;52.548;13.406;2023-03-11T09:09:22;6.22;;;3.53;;
71821;SDS011;64096;52.548;13.406;2023-03-11T09:11:48;5.97;;;3.20;;
71821;SDS011;64096;52.548;13.406;2023-03-11T09:14:14;4.93;;;2.78;;
71821;SDS011;64096;52.548;13.406;2023-03-11T09:16:40;7.30;;;4.40;;
71821;SDS011;64096;52.548;13.406;2023-03-11T09:19:06;6.10;;;3.33;;
71821;SDS011;64096;52.548;13.406;2023-03-11T09:21:33;4.53;;;3.03;;
71821;SDS011;64096;52.548;13.406;2023-03-11T09:23:59;4.55;;;3.10;;
71821;SDS011;64096;52.548;13.406;2023-03-11T09:26:25;5.80;;;3.10;;
71821;SDS011;64096;52.548;13.406;2023-03-11T09:28:51;5.15;;;3.22;;
71821;SDS011;64096;52.548;13.406;2023-03-11T09:31:17;6.63;;;3.72;;
71821;SDS011;64096;52.548;13.406;2023-03-11T09:33:44;5.18;;;3.22;;
71821;SDS011;64096;52.548;13.406;2023-03-11T09:36:11;4.95;;;2.90;;
71821;SDS011;64096;52.548;13.406;2023-03-11T09:38:38;4.35;;;2.67;;
71821;SDS011;64096;52.548;13.406;2023-03-11T09:41:27;5.20;;;3.58;;
71821;SDS011;64096;52.548;13.406;2023-03-11T09:44:35;4.90;;;3.40;;
71821;SDS011;64096;52.548;13.406;2023-03-11T09:47:05;5.78;;;3.58;;
71821;SDS011;64096;52.548;13.406;2023-03-11T09:52:16;4.70;;;3.00;;
71821;SDS011;64096;52.548;13.406;2023-03-11T09:54:46;5.00;;;3.15;;
71821;SDS011;64096;52.548;13.406;2023-03-11T09:57:14;6.57;;;3.55;;
71821;SDS011;64096;52.548;13.406;2023-03-11T09:59:41;5.65;;;3.60;;
71821;SDS011;64096;52.548;13.406;2023-03-11T10:02:09;7.75;;;4.88;;
71821;SDS011;64096;52.548;13.406;2023-03-11T10:04:39;5.30;;;3.65;;
71821;SDS011;64096;52.548;13.406;2023-03-11T10:07:09;5.57;;;3.38;;
71821;SDS011;64096;52.548;13.406;2023-03-11T10:17:34;5.20;;;3.22;;
71821;SDS011;64096;52.548;13.406;2023-03-11T10:22:37;5.13;;;3.75;;
71821;SDS011;64096;52.548;13.406;2023-03-11T10:25:17;5.47;;;3.50;;
71821;SDS011;64096;52.548;13.406;2023-03-11T10:27:59;5.53;;;3.95;;
71821;SDS011;64096;52.548;13.406;2023-03-11T10:30:40;5.55;;;3.60;;
71821;SDS011;64096;52.548;13.406;2023-03-11T10:33:12;5.43;;;3.47;;
71821;SDS011;64096;52.548;13.406;2023-03-11T10:35:43;5.88;;;4.07;;
71821;SDS011;64096;52.548;13.406;2023-03-11T10:38:14;5.07;;;3.35;;
71821;SDS011;64096;52.548;13.406;2023-03-11T10:40:45;5.97;;;3.60;;
71821;SDS011;64096;52.548;13.406;2023-03-11T10:45:44;5.45;;;3.70;;
71821;SDS011;64096;52.548;13.406;2023-03-11T10:48:13;4.70;;;3.20;;
71821;SDS011;64096;52.548;13.406;2023-03-11T10:53:24;4.70;;;3.13;;
71821;SDS011;64096;52.548;13.406;2023-03-11T10:55:54;4.22;;;2.90;;
71821;SDS011;64096;52.548;13.406;2023-03-11T10:58:21;5.30;;;3.70;;
71821;SDS011;64096;52.548;13.406;2023-03-11T11:03:26;5.18;;;3.42;;
71821;SDS011;64096;52.548;13.406;2023-03-11T11:05:56;5.55;;;3.83;;
71821;SDS011;64096;52.548;13.406;2023-03-11T11:08:22;4.82;;;3.25;;
71821;SDS011;64096;52.548;13.406;2023-03-11T11:11:10;4.72;;;3.67;;
71821;SDS011;64096;52.548;13.406;2023-03-11T11:13:37;5.40;;;3.80;;
71821;SDS011;64096;52.548;13.406;2023-03-11T11:16:05;7.20;;;4.03;;
71821;SDS011;64096;52.548;13.406;2023-03-11T11:21:12;6.38;;;4.03;;
71821;SDS011;64096;52.548;13.406;2023-03-11T11:23:42;6.53;;;4.32;;
71821;SDS011;64096;52.548;13.406;2023-03-11T11:26:19;5.97;;;4.57;;
71821;SDS011;64096;52.548;13.406;2023-03-11T11:28:46;6.13;;;4.60;;
71821;SDS011;64096;52.548;13.406;2023-03-11T11:31:29;7.32;;;4.60;;
71821;SDS011;64096;52.548;13.406;2023-03-11T11:33:55;6.65;;;4.78;;
71821;SDS011;64096;52.548;13.406;2023-03-11T11:36:23;5.88;;;4.00;;
71821;SDS011;64096;52.548;13.406;2023-03-11T11:38:53;6.05;;;4.45;;
71821;SDS011;64096;52.548;13.406;2023-03-11T11:41:20;6.80;;;4.80;;
71821;SDS011;64096;52.548;13.406;2023-03-11T11:43:53;6.50;;;4.47;;
71821;SDS011;64096;52.548;13.406;2023-03-11T11:46:24;6.65;;;4.90;;
71821;SDS011;64096;52.548;13.406;2023-03-11T11:52:07;6.32;;;4.65;;
71821;SDS011;64096;52.548;13.406;2023-03-11T11:54:17;7.80;;;4.88;;
71821;SDS011;64096;52.548;13.406;2023-03-11T11:56:46;6.38;;;5.18;;
71821;SDS011;64096;52.548;13.406;2023-03-11T11:59:13;7.47;;;4.55;;
71821;SDS011;64096;52.548;13.406;2023-03-11T12:07:00;7.40;;;5.35;;
71821;SDS011;64096;52.548;13.406;2023-03-11T12:09:30;6.85;;;4.88;;
71821;SDS011;64096;52.548;13.406;2023-03-11T12:12:07;7.47;;;5.00;;
71821;SDS011;64096;52.548;13.406;2023-03-11T12:14:45;7.00;;;4.88;;
71821;SDS011;64096;52.548;13.406;2023-03-11T12:17:14;6.53;;;4.90;;
71821;SDS011;64096;52.548;13.406;2023-03-11T12:19:47;6.05;;;4.57;;
71821;SDS011;64096;52.548;13.406;2023-03-11T12:22:38;6.32;;;4.85;;
71821;SDS011;64096;52.548;13.406;2023-03-11T12:27:56;5.90;;;4.40;;
71821;SDS011;64096;52.548;13.406;2023-03-11T12:30:34;7.45;;;4.65;;
71821;SDS011;64096;52.548;13.406;2023-03-11T12:33:23;6.63;;;4.95;;
71821;SDS011;64096;52.548;13.406;2023-03-11T12:35:52;7.75;;;5.47;;
71821;SDS011;64096;52.548;13.406;2023-03-11T12:38:23;7.97;;;4.93;;
71821;SDS011;64096;52.548;13.406;2023-03-11T12:46:03;6.68;;;4.82;;
71821;SDS011;64096;52.548;13.406;2023-03-11T12:48:33;6.47;;;4.75;;
71821;SDS011;64096;52.548;13.406;2023-03-11T12:51:00;6.88;;;5.00;;
71821;SDS011;64096;52.548;13.406;2023-03-11T13:03:54;7.13;;;4.70;;
71821;SDS011;64096;52.548;13.406;2023-03-11T13:08:56;6.68;;;4.78;;
71821;SDS011;64096;52.548;13.406;2023-03-11T13:13:51;6.82;;;4.60;;
71821;SDS011;64096;52.548;13.406;2023-03-11T13:18:47;6.90;;;5.00;;
71821;SDS011;64096;52.548;13.406;2023-03-11T13:26:42;6.38;;;4.25;;
71821;SDS011;64096;52.548;13.406;2023-03-11T13:34:28;7.28;;;4.78;;
71821;SDS011;64096;52.548;13.406;2023-03-11T13:41:58;8.05;;;5.53;;
71821;SDS011;64096;52.548;13.406;2023-03-11T13:44:32;5.95;;;4.43;;
71821;SDS011;64096;52.548;13.406;2023-03-11T13:47:09;7.43;;;4.88;;
71821;SDS011;64096;52.548;13.406;2023-03-11T13:49:49;6.68;;;4.72;;
71821;SDS011;64096;52.548;13.406;2023-03-11T13:52:26;6.10;;;3.90;;
71821;SDS011;64096;52.548;13.406;2023-03-11T13:57:26;6.47;;;4.28;;
71821;SDS011;64096;52.548;13.406;2023-03-11T13:59:54;6.57;;;4.07;;
